Time;durP1;ratioP1;P1;durP2;ratioP2;P2;SDS_P1;SDS_P2;PMS_P1;PMS_P2;Temp;Humidity;BMP_temperature;BMP_pressure;BME280_temperature;BME280_humidity;BME280_pressure;Samples;Min_cycle;Max_cycle;Signal;HPM_P1;HPM_P2
2022/06/26 00:00:34;;;;;;;4.88;2.10;;;21.60;99.90;;;;;;12362584;28;20454;-81
2022/06/26 00:06:37;;;;;;;2.50;1.80;;;21.50;99.90;;;;;;12400818;28;20097;-81
2022/06/26 00:12:39;;;;;;;3.95;2.30;;;21.50;99.90;;;;;;12387926;28;20055;-82
2022/06/26 00:18:41;;;;;;;7.95;2.60;;;21.50;99.90;;;;;;12385730;28;20050;-82
2022/06/26 00:24:43;;;;;;;3.33;2.20;;;21.40;99.90;;;;;;12378252;28;20042;-81
2022/06/26 00:30:45;;;;;;;2.58;2.00;;;21.40;99.90;;;;;;12368000;28;20054;-82
2022/06/26 00:36:48;;;;;;;3.65;2.03;;;21.40;99.90;;;;;;12369233;28;20183;-81
2022/06/26 00:42:50;;;;;;;3.75;1.90;;;21.30;99.90;;;;;;12372873;28;20165;-81
2022/06/26 00:48:53;;;;;;;4.80;2.10;;;21.20;99.90;;;;;;12364604;28;20535;-80
2022/06/26 00:54:55;;;;;;;3.88;2.53;;;21.20;99.90;;;;;;12371489;28;20046;-82
2022/06/26 01:00:57;;;;;;;4.60;2.30;;;21.20;99.90;;;;;;12400918;28;20050;-81
2022/06/26 01:06:59;;;;;;;3.50;1.65;;;21.20;99.90;;;;;;12366086;28;20149;-81
2022/06/26 01:13:01;;;;;;;9.25;2.53;;;21.20;99.90;;;;;;12372043;28;20047;-81
2022/06/26 01:19:05;;;;;;;4.35;3.05;;;21.20;99.90;;;;;;12375023;28;20093;-81
2022/06/26 01:25:07;;;;;;;7.60;3.80;;;21.20;99.90;;;;;;12356805;28;20104;-80
2022/06/26 01:31:09;;;;;;;4.63;3.22;;;20.80;99.90;;;;;;12368685;28;20499;-81
2022/06/26 01:37:11;;;;;;;6.85;3.15;;;20.50;99.90;;;;;;12368333;28;20047;-80
2022/06/26 01:43:15;;;;;;;6.43;3.42;;;20.20;99.90;;;;;;12379900;28;20182;-81
2022/06/26 01:49:17;;;;;;;3.72;2.80;;;20.00;99.90;;;;;;12373724;28;20080;-81
2022/06/26 01:55:18;;;;;;;4.25;2.60;;;20.00;99.90;;;;;;12362286;28;20469;-81
2022/06/26 02:01:23;;;;;;;5.15;2.70;;;20.00;99.90;;;;;;12391660;28;20490;-81
2022/06/26 02:07:25;;;;;;;4.72;3.15;;;20.00;99.90;;;;;;12376537;28;20057;-81
2022/06/26 02:13:36;;;;;;;4.47;3.53;;;19.90;99.90;;;;;;12367427;28;20088;-80
2022/06/26 02:19:38;;;;;;;5.50;3.15;;;19.80;99.90;;;;;;12388145;28;20055;-80
2022/06/26 02:25:41;;;;;;;6.35;3.30;;;19.60;99.90;;;;;;12380964;28;20061;-80
2022/06/26 02:31:43;;;;;;;6.80;3.53;;;19.50;99.90;;;;;;12371299;28;20050;-81
2022/06/26 02:37:44;;;;;;;6.20;3.63;;;19.30;99.90;;;;;;12386440;28;20112;-80
2022/06/26 02:43:46;;;;;;;5.22;3.30;;;19.10;99.90;;;;;;12387377;28;20047;-80
2022/06/26 02:49:48;;;;;;;3.85;3.20;;;19.10;99.90;;;;;;12379065;28;20085;-80
2022/06/26 02:55:50;;;;;;;5.72;3.58;;;19.10;99.90;;;;;;12355152;28;20576;-80
2022/06/26 03:01:52;;;;;;;6.10;3.50;;;18.80;99.90;;;;;;12373362;28;20519;-80
2022/06/26 03:07:56;;;;;;;5.38;3.65;;;18.90;99.90;;;;;;12384203;28;20516;-81
2022/06/26 03:13:57;;;;;;;4.00;3.10;;;19.00;99.90;;;;;;12368951;28;20051;-80
2022/06/26 03:19:59;;;;;;;4.32;3.10;;;19.00;99.90;;;;;;12387215;28;20112;-80
2022/06/26 03:26:01;;;;;;;4.00;2.47;;;18.80;99.90;;;;;;12371911;28;20175;-81
2022/06/26 03:32:03;;;;;;;6.30;2.97;;;18.70;99.90;;;;;;12386446;28;20392;-81
2022/06/26 03:38:05;;;;;;;6.50;2.70;;;18.80;99.90;;;;;;12383865;28;20076;-80
2022/06/26 03:44:06;;;;;;;3.78;2.28;;;19.00;99.90;;;;;;12403496;28;20079;-80
2022/06/26 03:50:09;;;;;;;3.03;2.38;;;19.10;99.90;;;;;;12372747;28;20185;-81
2022/06/26 03:56:11;;;;;;;3.78;2.60;;;19.20;99.90;;;;;;12372382;28;20050;-81
2022/06/26 04:02:13;;;;;;;4.95;2.10;;;19.30;99.90;;;;;;12383329;28;20133;-81
2022/06/26 04:08:15;;;;;;;4.60;2.13;;;19.40;99.90;;;;;;12353013;28;20051;-80
2022/06/26 04:14:17;;;;;;;6.25;2.50;;;19.70;99.90;;;;;;12353988;28;20101;-81
2022/06/26 04:20:20;;;;;;;3.20;2.20;;;19.80;99.90;;;;;;12386788;28;20408;-81
2022/06/26 04:26:21;;;;;;;3.17;2.30;;;19.90;99.90;;;;;;12367402;28;20054;-81
2022/06/26 04:32:24;;;;;;;3.28;2.38;;;20.00;99.90;;;;;;12397515;28;20069;-81
2022/06/26 04:38:26;;;;;;;4.97;2.60;;;20.10;99.90;;;;;;12376683;28;20384;-81
2022/06/26 04:44:28;;;;;;;8.35;2.47;;;20.20;99.90;;;;;;12374961;28;20181;-81
2022/06/26 04:50:29;;;;;;;5.40;2.60;;;20.40;99.90;;;;;;12366533;28;20618;-81
2022/06/26 04:56:32;;;;;;;4.20;2.75;;;20.40;99.90;;;;;;12355928;28;20065;-81
2022/06/26 05:02:34;;;;;;;4.45;2.97;;;20.60;99.90;;;;;;12379230;28;20181;-81
2022/06/26 05:08:36;;;;;;;5.57;2.78;;;20.70;99.90;;;;;;12369350;28;20050;-81
2022/06/26 05:14:37;;;;;;;4.38;3.00;;;20.80;99.90;;;;;;12366183;28;20061;-81
2022/06/26 05:20:39;;;;;;;4.15;2.80;;;20.80;99.90;;;;;;12380814;28;20495;-81
2022/06/26 05:26:41;;;;;;;5.47;3.80;;;20.90;99.90;;;;;;12363445;28;20053;-81
2022/06/26 05:32:43;;;;;;;8.70;4.53;;;21.00;99.90;;;;;;12402010;28;20522;-80
2022/06/26 05:38:45;;;;;;;6.93;4.40;;;21.10;99.90;;;;;;12394005;28;20445;-79
2022/06/26 05:44:47;;;;;;;8.07;4.47;;;20.80;99.90;;;;;;12377037;28;20103;-80
2022/06/26 05:50:48;;;;;;;5.05;3.83;;;20.70;99.90;;;;;;12368149;28;20100;-80
2022/06/26 05:56:50;;;;;;;6.25;4.10;;;20.60;99.90;;;;;;12379056;28;20047;-79
2022/06/26 06:02:52;;;;;;;5.90;3.80;;;20.50;99.90;;;;;;12364681;28;20054;-79
2022/06/26 06:08:54;;;;;;;7.57;4.40;;;20.40;99.90;;;;;;12369455;28;20062;-79
2022/06/26 06:14:56;;;;;;;7.85;4.03;;;20.30;99.90;;;;;;12349426;28;20105;-80
2022/06/26 06:20:57;;;;;;;7.28;3.80;;;20.20;99.90;;;;;;12382661;28;20565;-79
2022/06/26 06:27:12;;;;;;;7.03;3.67;;;20.30;99.90;;;;;;12368730;28;20164;-79
2022/06/26 06:33:14;;;;;;;7.13;3.53;;;20.20;99.90;;;;;;12382345;28;20042;-81
2022/06/26 06:39:16;;;;;;;4.78;3.50;;;20.30;99.90;;;;;;12381476;28;20111;-80
2022/06/26 06:45:18;;;;;;;5.97;4.07;;;20.40;99.90;;;;;;12362789;28;20058;-80
2022/06/26 06:51:19;;;;;;;6.32;3.85;;;20.30;99.90;;;;;;12353891;28;20392;-80
2022/06/26 06:57:21;;;;;;;6.70;4.20;;;20.30;99.90;;;;;;12352262;28;20042;-80
2022/06/26 07:03:24;;;;;;;7.18;4.13;;;20.20;99.90;;;;;;12369740;28;20137;-80
2022/06/26 07:09:25;;;;;;;4.55;3.90;;;20.10;99.90;;;;;;12379351;28;20058;-80
2022/06/26 07:15:27;;;;;;;4.63;4.18;;;20.20;99.90;;;;;;12364226;28;20553;-79
2022/06/26 07:21:30;;;;;;;6.75;5.32;;;20.40;99.90;;;;;;12381546;28;20448;-80
2022/06/26 07:27:32;;;;;;;5.45;4.25;;;20.30;99.90;;;;;;12388136;28;20137;-80
2022/06/26 07:39:55;;;;;;;5.65;3.75;;;20.20;99.90;;;;;;12362448;28;20046;-80
2022/06/26 07:45:57;;;;;;;6.90;4.38;;;20.30;99.90;;;;;;12382552;28;20050;-80
2022/06/26 07:51:59;;;;;;;7.25;4.10;;;20.40;99.90;;;;;;12362443;28;20055;-80
2022/06/26 07:58:01;;;;;;;5.78;3.45;;;20.60;99.90;;;;;;12330864;28;20100;-79
2022/06/26 08:04:02;;;;;;;5.40;3.17;;;20.70;99.90;;;;;;12355526;28;20517;-79
2022/06/26 08:10:05;;;;;;;5.15;3.83;;;20.70;99.90;;;;;;12350500;28;20148;-80
2022/06/26 08:16:07;;;;;;;5.93;3.80;;;20.70;99.90;;;;;;12360744;28;20519;-80
2022/06/26 08:22:09;;;;;;;5.07;3.47;;;20.80;99.90;;;;;;12347920;28;20131;-80
2022/06/26 08:28:11;;;;;;;4.22;3.25;;;21.00;99.90;;;;;;12358492;28;20086;-80
2022/06/26 08:34:13;;;;;;;5.10;3.20;;;21.00;99.90;;;;;;12358477;28;20109;-79
2022/06/26 08:40:16;;;;;;;4.45;3.40;;;20.90;99.90;;;;;;12361101;28;20408;-80
2022/06/26 08:46:23;;;;;;;5.78;3.00;;;20.90;99.90;;;;;;12349162;28;20191;-79
2022/06/26 08:52:28;;;;;;;4.30;3.13;;;21.00;99.90;;;;;;12364152;28;20049;-80
2022/06/26 08:58:30;;;;;;;4.30;3.00;;;21.10;99.90;;;;;;12349873;28;20054;-80
2022/06/26 09:04:36;;;;;;;3.70;2.58;;;21.10;99.90;;;;;;12321302;28;20054;-81
2022/06/26 09:10:42;;;;;;;5.45;2.67;;;21.00;99.90;;;;;;12343979;28;20050;-80
2022/06/26 09:16:47;;;;;;;3.28;2.35;;;21.10;99.90;;;;;;12359029;28;20047;-80
2022/06/26 09:22:56;;;;;;;4.32;2.40;;;21.10;99.90;;;;;;12380441;28;20518;-80
2022/06/26 09:29:10;;;;;;;3.10;2.00;;;21.10;99.90;;;;;;12372698;28;20087;-81
2022/06/26 09:35:21;;;;;;;4.60;2.10;;;21.20;99.90;;;;;;12361785;28;20901;-81
2022/06/26 09:41:34;;;;;;;3.85;1.92;;;21.40;99.90;;;;;;12363497;28;20050;-80
2022/06/26 09:47:36;;;;;;;2.47;1.80;;;21.50;99.90;;;;;;12364932;28;20062;-80
2022/06/26 09:53:39;;;;;;;2.65;1.77;;;21.60;99.90;;;;;;12349596;28;20548;-80
2022/06/26 09:59:41;;;;;;;2.63;1.90;;;21.60;99.90;;;;;;12367483;28;20125;-80
2022/06/26 10:06:25;;;;;;;2.70;1.80;;;21.50;99.90;;;;;;12368225;28;20116;-80
2022/06/26 10:12:06;;;;;;;4.38;2.10;;;21.50;99.90;;;;;;12365950;28;20042;-80
2022/06/26 10:18:16;;;;;;;3.30;1.80;;;21.50;99.90;;;;;;12363485;28;20054;-80
2022/06/26 10:24:18;;;;;;;3.45;1.80;;;21.60;99.90;;;;;;12362174;28;20046;-79
2022/06/26 10:30:23;;;;;;;2.85;1.50;;;21.80;99.90;;;;;;12408352;28;20140;-80
2022/06/26 10:36:25;;;;;;;2.42;1.60;;;21.90;99.90;;;;;;12393631;28;20406;-80
2022/06/26 10:43:01;;;;;;;3.88;1.40;;;21.90;99.90;;;;;;12367172;28;20138;-81
2022/06/26 10:48:56;;;;;;;3.05;1.80;;;22.10;99.90;;;;;;12376518;28;20061;-80
2022/06/26 10:54:58;;;;;;;3.28;1.80;;;22.60;99.90;;;;;;12362290;28;20046;-80
2022/06/26 11:01:02;;;;;;;4.20;2.78;;;22.90;99.90;;;;;;12379201;28;20047;-80
2022/06/26 11:07:04;;;;;;;2.83;2.30;;;23.10;99.90;;;;;;12386187;28;20076;-80
2022/06/26 11:13:08;;;;;;;3.58;2.53;;;22.80;99.90;;;;;;12375702;28;20071;-80
2022/06/26 11:19:24;;;;;;;8.60;5.05;;;22.80;99.90;;;;;;12375480;28;20112;-80
2022/06/26 11:25:26;;;;;;;3.42;2.85;;;22.60;99.90;;;;;;12402085;28;20043;-81
2022/06/26 11:31:32;;;;;;;4.68;3.50;;;22.60;99.90;;;;;;12397086;28;20113;-81
2022/06/26 11:37:36;;;;;;;4.35;3.42;;;22.80;99.90;;;;;;12352542;28;20046;-80
2022/06/26 11:43:45;;;;;;;3.80;3.38;;;22.70;99.90;;;;;;12370744;28;20133;-81
2022/06/26 11:49:47;;;;;;;3.40;3.10;;;22.80;99.90;;;;;;12377304;28;20186;-81
2022/06/26 11:55:55;;;;;;;6.88;3.60;;;23.00;99.90;;;;;;12364246;28;20539;-82
2022/06/26 12:01:57;;;;;;;3.70;3.20;;;23.30;99.90;;;;;;12367416;28;20057;-82
2022/06/26 12:07:59;;;;;;;4.60;3.83;;;23.60;99.90;;;;;;12362873;28;20575;-80
2022/06/26 12:14:13;;;;;;;5.60;3.85;;;23.60;99.90;;;;;;12355651;28;20051;-80
2022/06/26 12:20:15;;;;;;;5.70;3.63;;;23.40;99.90;;;;;;12374487;28;20469;-80
2022/06/26 12:26:22;;;;;;;5.30;4.47;;;23.20;99.90;;;;;;12374129;28;20050;-81
2022/06/26 12:32:24;;;;;;;4.75;4.25;;;23.20;99.90;;;;;;12350484;28;20410;-81
2022/06/26 12:38:27;;;;;;;6.55;4.40;;;23.00;99.90;;;;;;12369334;28;20770;-81
2022/06/26 12:44:29;;;;;;;5.90;4.63;;;22.80;99.90;;;;;;12386410;28;20494;-81
2022/06/26 12:50:30;;;;;;;5.40;4.40;;;22.80;99.90;;;;;;12391030;28;20054;-81
2022/06/26 12:56:32;;;;;;;6.80;4.85;;;22.80;99.90;;;;;;12349525;28;20557;-81
2022/06/26 13:02:34;;;;;;;5.82;4.97;;;22.70;99.90;;;;;;12368220;28;20042;-81
2022/06/26 13:08:36;;;;;;;5.72;5.13;;;22.60;99.90;;;;;;12358993;28;20137;-81
2022/06/26 13:14:38;;;;;;;7.35;5.22;;;22.60;99.90;;;;;;12386759;28;20082;-81
2022/06/26 13:20:40;;;;;;;6.03;5.43;;;22.50;99.90;;;;;;12349808;28;20177;-80
2022/06/26 13:26:42;;;;;;;6.47;5.18;;;22.40;99.90;;;;;;12352304;28;20055;-80
2022/06/26 13:32:44;;;;;;;7.00;6.38;;;22.40;99.90;;;;;;12371533;28;20129;-81
2022/06/26 13:38:46;;;;;;;6.57;5.78;;;22.40;99.90;;;;;;12355852;28;20464;-80
2022/06/26 13:44:48;;;;;;;7.30;6.27;;;22.30;99.90;;;;;;12388888;28;20054;-81
2022/06/26 13:50:50;;;;;;;8.50;7.25;;;22.30;99.90;;;;;;12381571;28;20074;-81
2022/06/26 13:56:52;;;;;;;9.00;8.02;;;22.10;99.90;;;;;;12379202;28;20046;-81
2022/06/26 14:02:54;;;;;;;9.32;7.80;;;22.20;99.90;;;;;;12385275;28;20058;-80
2022/06/26 14:08:56;;;;;;;8.27;7.45;;;22.20;99.90;;;;;;12351009;28;20129;-81
2022/06/26 14:14:58;;;;;;;8.32;7.53;;;22.30;99.90;;;;;;12367203;28;20038;-81
2022/06/26 14:21:00;;;;;;;8.10;7.05;;;22.50;99.90;;;;;;12370486;28;20157;-81
2022/06/26 14:27:02;;;;;;;6.67;6.00;;;22.60;99.90;;;;;;12365237;28;20055;-81
2022/06/26 14:33:04;;;;;;;9.65;6.95;;;22.50;99.90;;;;;;12370857;28;20077;-81
2022/06/26 14:39:06;;;;;;;9.48;7.15;;;22.40;99.90;;;;;;12373262;28;20457;-80
2022/06/26 14:45:08;;;;;;;7.00;6.30;;;22.40;99.90;;;;;;12360760;28;20054;-81
2022/06/26 14:51:10;;;;;;;7.15;6.43;;;22.40;99.90;;;;;;12365994;28;20101;-81
2022/06/26 14:57:12;;;;;;;7.00;6.30;;;22.30;99.90;;;;;;12377068;28;20054;-81
2022/06/26 15:03:14;;;;;;;8.55;6.43;;;22.30;99.90;;;;;;12370461;28;20085;-81
2022/06/26 15:09:15;;;;;;;7.55;6.60;;;22.10;99.90;;;;;;12366353;28;20093;-81
2022/06/26 15:15:18;;;;;;;7.22;6.22;;;22.10;99.90;;;;;;12392224;28;20116;-81
2022/06/26 15:21:19;;;;;;;7.03;6.35;;;22.10;99.90;;;;;;12367426;28;20091;-81
2022/06/26 15:27:21;;;;;;;9.10;6.30;;;22.10;99.90;;;;;;12388380;28;20052;-81
2022/06/26 15:33:23;;;;;;;13.95;9.13;;;22.10;99.90;;;;;;12366791;28;20106;-81
2022/06/26 15:39:25;;;;;;;6.55;5.85;;;22.10;99.90;;;;;;12394345;28;20478;-81
2022/06/26 15:45:27;;;;;;;7.30;5.20;;;22.20;99.90;;;;;;12367701;28;20046;-81
2022/06/26 15:51:29;;;;;;;6.03;5.32;;;22.30;99.90;;;;;;12370761;28;20439;-80
2022/06/26 15:57:31;;;;;;;5.15;4.65;;;22.30;99.90;;;;;;12372275;28;20089;-81
2022/06/26 16:03:33;;;;;;;7.10;5.10;;;22.20;99.90;;;;;;12377203;28;20039;-81
2022/06/26 16:09:35;;;;;;;9.13;5.22;;;22.30;99.90;;;;;;12378911;28;20046;-81
2022/06/26 16:15:38;;;;;;;6.40;5.80;;;22.30;99.90;;;;;;12355626;28;20081;-81
2022/06/26 16:26:16;;;;;;;7.57;6.38;;;22.30;99.90;;;;;;12356926;28;20053;-80
2022/06/26 16:28:03;;;;;;;8.80;6.35;;;22.30;99.90;;;;;;12387566;28;20129;-81
2022/06/26 16:34:05;;;;;;;7.05;6.32;;;22.30;99.90;;;;;;12374620;28;20125;-81
2022/06/26 16:40:07;;;;;;;6.07;5.35;;;22.20;99.90;;;;;;12363035;28;20146;-81
2022/06/26 16:46:11;;;;;;;5.25;4.68;;;22.10;99.90;;;;;;12376339;28;20092;-81
2022/06/26 16:52:13;;;;;;;7.88;4.60;;;22.10;99.90;;;;;;12382388;28;20042;-81
2022/06/26 16:58:15;;;;;;;5.72;4.38;;;22.10;99.90;;;;;;12351074;28;20114;-81
2022/06/26 17:04:17;;;;;;;5.55;4.10;;;22.10;99.90;;;;;;12373199;28;20042;-81
2022/06/26 17:10:19;;;;;;;4.80;4.30;;;22.00;99.90;;;;;;12365614;28;20045;-80
2022/06/26 17:16:21;;;;;;;6.65;4.65;;;22.00;99.90;;;;;;12355331;28;20055;-81
2022/06/26 17:22:23;;;;;;;5.53;4.22;;;21.90;99.90;;;;;;12372235;28;20403;-81
2022/06/26 17:28:25;;;;;;;10.05;4.65;;;21.80;99.90;;;;;;12381269;28;20058;-81
2022/06/26 17:34:27;;;;;;;6.28;4.35;;;21.80;99.90;;;;;;12364241;28;20556;-81
2022/06/26 17:40:29;;;;;;;5.53;4.10;;;21.80;99.90;;;;;;12377076;28;20517;-81
2022/06/26 17:46:31;;;;;;;4.97;4.13;;;21.80;99.90;;;;;;12398819;28;20061;-81
2022/06/26 17:52:33;;;;;;;5.13;3.67;;;21.80;99.90;;;;;;12365857;28;20039;-81
2022/06/26 17:58:35;;;;;;;6.13;4.32;;;21.80;99.90;;;;;;12369723;28;20403;-80
2022/06/26 18:04:37;;;;;;;6.85;4.13;;;21.80;99.90;;;;;;12366956;28;20141;-81
2022/06/26 18:10:39;;;;;;;5.60;3.65;;;21.80;99.90;;;;;;12354081;28;20046;-81
2022/06/26 18:16:41;;;;;;;4.07;2.92;;;21.80;99.90;;;;;;12375777;28;20058;-80
2022/06/26 18:22:44;;;;;;;5.72;2.60;;;21.80;99.90;;;;;;12373809;28;20104;-81
2022/06/26 18:28:46;;;;;;;3.53;1.90;;;21.70;99.90;;;;;;12372418;28;20046;-80
2022/06/26 18:34:48;;;;;;;8.13;2.78;;;21.70;99.90;;;;;;12397327;28;20093;-80
2022/06/26 18:40:50;;;;;;;4.00;2.20;;;21.60;99.90;;;;;;12375204;28;20053;-81
2022/06/26 18:46:52;;;;;;;3.53;2.17;;;21.40;99.90;;;;;;12396295;28;20129;-81
2022/06/26 18:52:54;;;;;;;3.50;1.90;;;21.30;99.90;;;;;;12436190;28;20066;-80
2022/06/26 18:58:56;;;;;;;3.63;2.10;;;21.30;99.90;;;;;;12388702;28;20092;-81
2022/06/26 19:04:58;;;;;;;4.65;2.20;;;21.30;99.90;;;;;;12388844;28;20046;-80
2022/06/26 19:17:40;;;;;;;5.45;2.20;;;21.10;99.90;;;;;;12372349;28;20162;-80
2022/06/26 19:23:42;;;;;;;3.85;1.90;;;21.10;99.90;;;;;;12356205;28;20125;-80
2022/06/26 19:29:44;;;;;;;4.13;1.63;;;21.00;99.90;;;;;;12381918;28;20084;-80
2022/06/26 19:35:46;;;;;;;4.20;2.00;;;21.00;99.90;;;;;;12371438;28;20038;-81
2022/06/26 19:41:47;;;;;;;3.13;2.00;;;21.00;99.90;;;;;;12371037;28;20034;-81
2022/06/26 19:47:49;;;;;;;7.35;2.10;;;21.00;99.90;;;;;;12387546;28;20054;-81
2022/06/26 19:53:51;;;;;;;3.22;1.98;;;21.00;99.90;;;;;;12344826;28;20039;-80
2022/06/26 19:59:53;;;;;;;3.53;1.90;;;20.90;99.90;;;;;;12376391;28;20046;-81
2022/06/26 20:05:55;;;;;;;3.28;2.00;;;20.90;99.90;;;;;;12361079;28;20119;-80
2022/06/26 20:11:57;;;;;;;2.38;1.60;;;20.90;99.90;;;;;;12371626;28;20137;-81
2022/06/26 20:17:59;;;;;;;4.43;2.15;;;21.00;99.90;;;;;;12373964;28;20046;-81
2022/06/26 20:24:01;;;;;;;3.40;2.00;;;20.90;99.90;;;;;;12388327;28;20597;-80
2022/06/26 20:30:04;;;;;;;5.93;1.98;;;20.90;99.90;;;;;;12372367;28;20116;-80
2022/06/26 20:36:05;;;;;;;3.20;2.10;;;20.80;99.90;;;;;;12353893;28;20169;-80
2022/06/26 20:42:07;;;;;;;3.03;1.92;;;20.70;99.90;;;;;;12381017;28;20133;-81
2022/06/26 20:48:11;;;;;;;3.90;2.10;;;20.70;99.90;;;;;;12368384;28;20043;-81
2022/06/26 20:54:13;;;;;;;3.88;1.90;;;20.70;99.90;;;;;;12355897;28;20126;-81
2022/06/26 21:00:16;;;;;;;3.75;2.00;;;20.70;99.90;;;;;;12378806;28;20085;-80
2022/06/26 21:06:18;;;;;;;2.87;1.97;;;20.60;99.90;;;;;;12361954;28;20078;-80
2022/06/26 21:12:20;;;;;;;4.30;2.10;;;20.50;99.90;;;;;;12369412;28;20562;-80
2022/06/26 21:18:22;;;;;;;3.38;1.77;;;20.40;99.90;;;;;;12378536;28;20051;-81
2022/06/26 21:24:24;;;;;;;3.72;2.35;;;20.30;99.90;;;;;;12368286;28;20050;-81
2022/06/26 21:30:26;;;;;;;5.97;1.87;;;20.40;99.90;;;;;;12366685;28;20121;-81
2022/06/26 21:36:29;;;;;;;5.05;1.88;;;20.50;99.90;;;;;;12355021;28;20136;-80
2022/06/26 21:42:31;;;;;;;4.72;1.95;;;20.50;99.90;;;;;;12371161;28;20130;-80
2022/06/26 21:48:32;;;;;;;4.35;1.88;;;20.40;99.90;;;;;;12373422;28;20116;-81
2022/06/26 21:54:34;;;;;;;3.95;2.00;;;20.30;99.90;;;;;;12365301;28;20092;-80
2022/06/26 22:00:37;;;;;;;2.97;2.00;;;20.30;99.90;;;;;;12384596;28;20125;-80
2022/06/26 22:06:39;;;;;;;2.80;1.55;;;20.20;99.90;;;;;;12376879;28;20055;-81
2022/06/26 22:12:41;;;;;;;2.80;1.70;;;20.10;99.90;;;;;;12404625;28;20090;-80
2022/06/26 22:18:43;;;;;;;5.60;2.42;;;20.00;99.90;;;;;;12356462;28;20059;-80
2022/06/26 22:24:45;;;;;;;5.10;3.05;;;20.00;99.90;;;;;;12382225;28;20108;-80
2022/06/26 22:30:46;;;;;;;9.10;3.83;;;19.60;99.90;;;;;;12385385;28;20108;-79
2022/06/26 22:36:48;;;;;;;7.40;4.28;;;19.10;99.90;;;;;;12361512;28;20140;-79
2022/06/26 22:42:50;;;;;;;6.55;4.53;;;18.50;99.90;;;;;;12389634;28;20109;-80
2022/06/26 22:48:52;;;;;;;8.98;5.40;;;18.40;99.90;;;;;;12370766;28;20055;-79
2022/06/26 22:54:54;;;;;;;7.28;4.88;;;18.20;99.90;;;;;;12377511;28;20104;-80
2022/06/26 23:00:56;;;;;;;7.93;5.70;;;18.40;99.90;;;;;;12382903;28;20458;-80
2022/06/26 23:06:57;;;;;;;8.05;5.95;;;18.30;99.90;;;;;;12360975;28;20071;-80
2022/06/26 23:12:59;;;;;;;9.10;5.18;;;18.40;99.90;;;;;;12352152;28;20085;-80
2022/06/26 23:19:01;;;;;;;7.50;5.38;;;18.40;99.90;;;;;;12370743;28;20054;-79
2022/06/26 23:25:04;;;;;;;9.77;6.70;;;18.40;99.90;;;;;;12373599;28;20084;-80
2022/06/26 23:31:06;;;;;;;10.55;7.15;;;18.20;99.90;;;;;;12353320;28;20054;-80
2022/06/26 23:37:08;;;;;;;13.18;7.40;;;18.20;99.90;;;;;;12378694;28;20096;-80
2022/06/26 23:43:10;;;;;;;14.60;7.28;;;18.20;99.90;;;;;;12374310;28;21945;-80
2022/06/26 23:49:12;;;;;;;10.90;7.07;;;18.10;99.90;;;;;;12386764;28;20054;-79
2022/06/26 23:55:14;;;;;;;10.32;7.18;;;18.30;99.90;;;;;;12361925;28;20043;-80
